Time;durP1;ratioP1;P1;durP2;ratioP2;P2;SDS_P1;SDS_P2;PMS_P1;PMS_P2;Temp;Humidity;BMP_temperature;BMP_pressure;BME280_temperature;BME280_humidity;BME280_pressure;Samples;Min_cycle;Max_cycle;Signal;HPM_P1;HPM_P2
2023/01/29 00:00:32;;;;;;;19.73;12.27;;;;;;;;;;5126671;27;20058;-70
2023/01/29 00:02:58;;;;;;;18.60;11.75;;;;;;;;;;5112163;27;20063;-72
2023/01/29 00:05:24;;;;;;;18.40;11.98;;;;;;;;;;5110587;27;20422;-71
2023/01/29 00:07:54;;;;;;;24.05;11.52;;;;;;;;;;5107747;27;20055;-73
2023/01/29 00:10:21;;;;;;;19.13;11.80;;;;;;;;;;5116651;27;20058;-74
2023/01/29 00:12:47;;;;;;;19.10;11.70;;;;;;;;;;5115852;27;20094;-69
2023/01/29 00:15:13;;;;;;;19.83;12.15;;;;;;;;;;5107806;27;20059;-72
2023/01/29 00:17:40;;;;;;;21.35;12.23;;;;;;;;;;5106132;27;20044;-73
2023/01/29 00:20:06;;;;;;;18.08;11.98;;;;;;;;;;5105716;27;20081;-73
2023/01/29 00:22:32;;;;;;;23.88;12.27;;;;;;;;;;5116259;27;20054;-73
2023/01/29 00:24:59;;;;;;;16.70;10.50;;;;;;;;;;5128914;27;20043;-74
2023/01/29 00:27:25;;;;;;;15.18;10.18;;;;;;;;;;5125625;27;20051;-69
2023/01/29 00:30:07;;;;;;;17.23;10.48;;;;;;;;;;5115605;27;20048;-73
2023/01/29 00:32:34;;;;;;;19.17;11.65;;;;;;;;;;5122177;27;20560;-73
2023/01/29 00:35:01;;;;;;;20.92;11.63;;;;;;;;;;5119461;27;20616;-70
2023/01/29 00:37:27;;;;;;;20.42;12.60;;;;;;;;;;5114078;27;20131;-72
2023/01/29 00:39:54;;;;;;;19.77;11.68;;;;;;;;;;5125174;27;20058;-71
2023/01/29 00:45:06;;;;;;;19.17;11.68;;;;;;;;;;5114272;27;20043;-74
2023/01/29 00:47:32;;;;;;;21.33;12.20;;;;;;;;;;5107129;27;20074;-74
2023/01/29 00:50:03;;;;;;;21.10;13.10;;;;;;;;;;5105566;27;20144;-72
2023/01/29 00:52:29;;;;;;;18.27;11.82;;;;;;;;;;5105196;27;20050;-72
2023/01/29 00:54:57;;;;;;;17.25;11.70;;;;;;;;;;5108988;27;20048;-72
2023/01/29 00:57:24;;;;;;;20.85;12.43;;;;;;;;;;5105333;27;20044;-70
2023/01/29 00:59:51;;;;;;;19.40;13.38;;;;;;;;;;5106009;27;20048;-72
2023/01/29 01:05:04;;;;;;;20.67;12.48;;;;;;;;;;5105216;27;20505;-73
2023/01/29 01:07:31;;;;;;;18.40;12.05;;;;;;;;;;5117560;27;20051;-72
2023/01/29 01:12:43;;;;;;;22.15;13.10;;;;;;;;;;5106066;27;20135;-72
2023/01/29 01:15:09;;;;;;;20.25;12.23;;;;;;;;;;5109019;27;20052;-73
2023/01/29 01:17:36;;;;;;;21.90;13.20;;;;;;;;;;5095608;27;20413;-72
2023/01/29 01:20:03;;;;;;;19.85;12.32;;;;;;;;;;5112618;27;20512;-72
2023/01/29 01:22:30;;;;;;;19.95;13.45;;;;;;;;;;5109630;27;20569;-72
2023/01/29 01:24:57;;;;;;;19.40;12.90;;;;;;;;;;5111282;27;20048;-71
2023/01/29 01:27:24;;;;;;;17.80;11.25;;;;;;;;;;5105098;27;20143;-73
2023/01/29 01:29:50;;;;;;;20.35;13.50;;;;;;;;;;5119579;27;20555;-73
2023/01/29 01:32:17;;;;;;;21.02;11.50;;;;;;;;;;5116420;27;20613;-72
2023/01/29 01:34:44;;;;;;;22.60;12.77;;;;;;;;;;5128261;27;20497;-70
2023/01/29 01:37:10;;;;;;;16.70;11.18;;;;;;;;;;5124470;27;20054;-73
2023/01/29 01:39:36;;;;;;;18.30;11.90;;;;;;;;;;5115134;27;20052;-72
2023/01/29 01:42:04;;;;;;;18.92;11.65;;;;;;;;;;5105177;27;20063;-71
2023/01/29 01:44:49;;;;;;;17.08;11.65;;;;;;;;;;5104931;27;20114;-73
2023/01/29 01:47:17;;;;;;;17.05;11.40;;;;;;;;;;5122886;27;20445;-73
2023/01/29 01:49:44;;;;;;;19.17;11.25;;;;;;;;;;5111871;27;20056;-73
2023/01/29 01:52:11;;;;;;;17.80;11.00;;;;;;;;;;5120838;27;20524;-73
2023/01/29 01:54:38;;;;;;;18.20;11.93;;;;;;;;;;5112117;27;20086;-70
2023/01/29 01:57:15;;;;;;;19.60;11.75;;;;;;;;;;5113919;27;20578;-73
2023/01/29 01:59:44;;;;;;;18.45;11.25;;;;;;;;;;5104916;27;20052;-72
2023/01/29 02:10:29;;;;;;;18.48;12.50;;;;;;;;;;5104767;27;20514;-72
2023/01/29 02:12:55;;;;;;;16.02;11.57;;;;;;;;;;5110255;27;20086;-72
2023/01/29 02:15:22;;;;;;;17.15;11.82;;;;;;;;;;5124065;27;20048;-73
2023/01/29 02:17:49;;;;;;;17.88;12.57;;;;;;;;;;5123823;27;20044;-71
2023/01/29 02:20:26;;;;;;;23.00;13.20;;;;;;;;;;5123508;27;21376;-72
2023/01/29 02:23:11;;;;;;;19.23;12.90;;;;;;;;;;5121709;27;20048;-73
2023/01/29 02:25:40;;;;;;;21.60;12.50;;;;;;;;;;5118531;27;20473;-74
2023/01/29 02:28:13;;;;;;;19.15;11.90;;;;;;;;;;5104679;27;20052;-73
2023/01/29 02:30:59;;;;;;;17.38;11.93;;;;;;;;;;5103806;27;20052;-72
2023/01/29 02:33:34;;;;;;;21.90;13.68;;;;;;;;;;5096911;27;20041;-72
2023/01/29 02:36:17;;;;;;;21.77;13.80;;;;;;;;;;5122714;27;20524;-72
2023/01/29 02:38:50;;;;;;;20.90;13.18;;;;;;;;;;5117106;27;20405;-74
2023/01/29 02:41:25;;;;;;;22.55;12.20;;;;;;;;;;5122065;27;20043;-69
2023/01/29 02:44:00;;;;;;;17.90;11.27;;;;;;;;;;5104271;27;20058;-73
2023/01/29 02:46:31;;;;;;;19.95;12.55;;;;;;;;;;5111736;27;20533;-72
2023/01/29 02:49:06;;;;;;;22.42;13.15;;;;;;;;;;5128714;27;20059;-74
2023/01/29 02:51:40;;;;;;;19.70;12.52;;;;;;;;;;5126933;27;20099;-71
2023/01/29 02:54:12;;;;;;;17.77;11.52;;;;;;;;;;5128330;27;20140;-72
2023/01/29 02:56:43;;;;;;;21.70;13.25;;;;;;;;;;5119917;27;20046;-70
2023/01/29 02:59:15;;;;;;;24.85;14.35;;;;;;;;;;5127663;27;20105;-71
2023/01/29 03:01:45;;;;;;;26.70;14.43;;;;;;;;;;5120290;27;20055;-73
2023/01/29 03:04:14;;;;;;;25.45;16.35;;;;;;;;;;5124673;27;20056;-72
2023/01/29 03:06:43;;;;;;;25.58;16.05;;;;;;;;;;5121088;27;20067;-73
2023/01/29 03:09:15;;;;;;;27.13;16.90;;;;;;;;;;5111347;27;20673;-74
2023/01/29 03:11:44;;;;;;;30.38;17.88;;;;;;;;;;5127949;27;20055;-73
2023/01/29 03:15:10;;;;;;;25.42;17.58;;;;;;;;;;5118678;27;20714;-72
2023/01/29 03:17:16;;;;;;;24.50;14.65;;;;;;;;;;5106776;27;20048;-70
2023/01/29 03:19:45;;;;;;;24.55;14.85;;;;;;;;;;5118858;27;20052;-72
2023/01/29 03:22:12;;;;;;;22.73;13.98;;;;;;;;;;5114185;27;20558;-73
2023/01/29 03:33:13;;;;;;;21.35;12.50;;;;;;;;;;5126969;27;20471;-73
2023/01/29 03:35:47;;;;;;;21.98;14.30;;;;;;;;;;5118585;27;20557;-73
2023/01/29 03:38:14;;;;;;;19.60;13.43;;;;;;;;;;5107371;27;20087;-72
2023/01/29 03:41:10;;;;;;;20.25;13.10;;;;;;;;;;5107995;27;20577;-72
2023/01/29 03:43:37;;;;;;;21.42;13.38;;;;;;;;;;5102466;27;20047;-73
2023/01/29 03:46:07;;;;;;;20.83;13.80;;;;;;;;;;5126539;27;20101;-72
2023/01/29 03:48:36;;;;;;;24.92;14.68;;;;;;;;;;5114726;27;20083;-73
2023/01/29 03:51:10;;;;;;;22.15;14.10;;;;;;;;;;5120147;27;20074;-72
2023/01/29 03:53:40;;;;;;;22.48;14.30;;;;;;;;;;5112377;27;20106;-73
2023/01/29 03:56:12;;;;;;;25.63;15.10;;;;;;;;;;5122916;27;20043;-71
2023/01/29 03:58:44;;;;;;;22.13;14.15;;;;;;;;;;5126870;27;20047;-73
2023/01/29 04:01:18;;;;;;;25.20;15.15;;;;;;;;;;5116538;27;20052;-71
2023/01/29 04:04:03;;;;;;;26.75;15.65;;;;;;;;;;5106272;27;20052;-72
2023/01/29 04:06:31;;;;;;;24.75;14.95;;;;;;;;;;5106430;27;20052;-73
2023/01/29 04:09:00;;;;;;;27.05;16.75;;;;;;;;;;5106937;27;20051;-71
2023/01/29 04:11:28;;;;;;;23.20;15.00;;;;;;;;;;5110612;27;20051;-69
2023/01/29 04:13:55;;;;;;;24.83;15.55;;;;;;;;;;5122677;27;20606;-72
2023/01/29 04:16:24;;;;;;;24.70;15.57;;;;;;;;;;5126152;27;20051;-72
2023/01/29 04:18:50;;;;;;;26.67;14.95;;;;;;;;;;5114459;27;20083;-72
2023/01/29 04:21:17;;;;;;;25.88;15.07;;;;;;;;;;5110850;27;20490;-73
2023/01/29 04:23:43;;;;;;;24.70;15.60;;;;;;;;;;5111698;27;20048;-73
2023/01/29 04:26:20;;;;;;;25.63;15.40;;;;;;;;;;5126275;27;20091;-73
2023/01/29 04:28:56;;;;;;;26.27;15.80;;;;;;;;;;5112438;27;20130;-73
2023/01/29 04:31:27;;;;;;;22.23;14.85;;;;;;;;;;5108021;27;20057;-74
2023/01/29 04:34:11;;;;;;;24.63;15.35;;;;;;;;;;5129032;27;20058;-72
2023/01/29 04:36:37;;;;;;;23.90;15.18;;;;;;;;;;5125537;27;20047;-70
2023/01/29 04:39:16;;;;;;;24.90;15.23;;;;;;;;;;5126827;27;20051;-71
2023/01/29 04:41:45;;;;;;;25.77;16.23;;;;;;;;;;5105696;27;20580;-73
2023/01/29 04:44:17;;;;;;;22.50;14.27;;;;;;;;;;5122054;27;20043;-71
2023/01/29 04:47:02;;;;;;;25.20;16.30;;;;;;;;;;5109772;27;20399;-73
2023/01/29 04:49:44;;;;;;;26.67;15.50;;;;;;;;;;5108278;27;20519;-73
2023/01/29 04:52:29;;;;;;;23.35;15.88;;;;;;;;;;5126201;27;20587;-72
2023/01/29 04:55:13;;;;;;;29.23;16.52;;;;;;;;;;5118324;27;20522;-73
2023/01/29 04:57:41;;;;;;;26.27;16.67;;;;;;;;;;5105812;27;20059;-72
2023/01/29 05:00:11;;;;;;;22.17;14.57;;;;;;;;;;5109295;27;20043;-72
2023/01/29 05:02:38;;;;;;;27.88;16.13;;;;;;;;;;5105756;27;20650;-72
2023/01/29 05:05:06;;;;;;;26.67;15.70;;;;;;;;;;5108131;27;20047;-73
2023/01/29 05:07:34;;;;;;;22.08;14.50;;;;;;;;;;5113467;27;20058;-72
2023/01/29 05:10:01;;;;;;;26.50;16.23;;;;;;;;;;5125462;27;20059;-70
2023/01/29 05:12:28;;;;;;;26.30;17.40;;;;;;;;;;5113860;27;20508;-73
2023/01/29 05:14:57;;;;;;;25.02;15.98;;;;;;;;;;5105678;27;20054;-70
2023/01/29 05:17:24;;;;;;;25.98;16.02;;;;;;;;;;5105721;27;20518;-69
2023/01/29 05:19:50;;;;;;;26.90;15.93;;;;;;;;;;5106009;27;20056;-73
2023/01/29 05:22:17;;;;;;;21.60;14.32;;;;;;;;;;5106402;27;20487;-73
2023/01/29 05:24:45;;;;;;;23.65;14.52;;;;;;;;;;5102846;27;20083;-72
2023/01/29 05:30:02;;;;;;;27.75;16.45;;;;;;;;;;5108746;27;20086;-72
2023/01/29 05:32:28;;;;;;;25.25;16.08;;;;;;;;;;5114941;27;20052;-72
2023/01/29 05:34:54;;;;;;;26.08;16.80;;;;;;;;;;5111052;27;20048;-73
2023/01/29 05:37:21;;;;;;;26.52;16.83;;;;;;;;;;5107187;27;20534;-72
2023/01/29 05:39:47;;;;;;;28.77;16.05;;;;;;;;;;5119117;27;20059;-69
2023/01/29 05:42:14;;;;;;;30.02;17.00;;;;;;;;;;5121065;27;20047;-72
2023/01/29 05:44:40;;;;;;;24.00;15.23;;;;;;;;;;5108897;27;20048;-71
2023/01/29 05:47:06;;;;;;;28.95;17.20;;;;;;;;;;5117778;27;20082;-71
2023/01/29 05:49:33;;;;;;;27.02;16.08;;;;;;;;;;5088938;27;20441;-73
2023/01/29 05:51:59;;;;;;;26.13;16.45;;;;;;;;;;5124917;27;20051;-71
2023/01/29 05:54:25;;;;;;;25.52;16.50;;;;;;;;;;5103968;27;20052;-71
2023/01/29 05:56:52;;;;;;;28.17;16.83;;;;;;;;;;5120038;27;20151;-73
2023/01/29 05:59:18;;;;;;;29.42;16.92;;;;;;;;;;5125633;27;20514;-71
2023/01/29 06:01:44;;;;;;;27.35;17.00;;;;;;;;;;5128316;27;20489;-70
2023/01/29 06:04:11;;;;;;;24.88;17.27;;;;;;;;;;5121703;27;20143;-73
2023/01/29 06:06:37;;;;;;;28.38;16.77;;;;;;;;;;5123914;27;20064;-71
2023/01/29 06:09:03;;;;;;;26.80;15.88;;;;;;;;;;5118894;27;20183;-69
2023/01/29 06:11:29;;;;;;;23.33;15.43;;;;;;;;;;5121068;27;20505;-72
2023/01/29 06:13:56;;;;;;;26.02;16.17;;;;;;;;;;5123060;27;20058;-69
2023/01/29 06:16:22;;;;;;;26.33;16.45;;;;;;;;;;5112316;27;20127;-73
2023/01/29 06:18:49;;;;;;;28.33;17.08;;;;;;;;;;5123246;27;20067;-72
2023/01/29 06:21:15;;;;;;;24.40;15.10;;;;;;;;;;5114475;27;20056;-71
2023/01/29 06:23:45;;;;;;;26.42;16.30;;;;;;;;;;5108015;27;20048;-71
2023/01/29 06:26:12;;;;;;;25.42;15.75;;;;;;;;;;5114733;27;20040;-73
2023/01/29 06:28:39;;;;;;;27.13;16.23;;;;;;;;;;5126268;27;20048;-72
2023/01/29 06:31:05;;;;;;;22.83;15.32;;;;;;;;;;5117554;27;20052;-70
2023/01/29 06:33:52;;;;;;;23.85;15.00;;;;;;;;;;5127149;27;20074;-71
2023/01/29 06:36:18;;;;;;;26.52;15.90;;;;;;;;;;5127189;27;20051;-73
2023/01/29 06:38:46;;;;;;;23.13;15.45;;;;;;;;;;5120970;27;20689;-71
2023/01/29 06:41:14;;;;;;;23.25;14.88;;;;;;;;;;5106516;27;20048;-70
2023/01/29 06:43:43;;;;;;;31.00;15.68;;;;;;;;;;5111285;27;20066;-73
2023/01/29 06:46:09;;;;;;;27.00;16.35;;;;;;;;;;5113489;27;20049;-72
2023/01/29 06:48:35;;;;;;;22.40;14.85;;;;;;;;;;5109454;27;20056;-73
2023/01/29 06:51:05;;;;;;;23.17;15.07;;;;;;;;;;5123062;27;20058;-72
2023/01/29 06:53:32;;;;;;;23.52;14.73;;;;;;;;;;5121642;27;20056;-71
2023/01/29 06:55:59;;;;;;;21.20;14.68;;;;;;;;;;5107738;27;20074;-74
2023/01/29 06:58:25;;;;;;;26.70;15.30;;;;;;;;;;5125341;27;20098;-69
2023/01/29 07:00:51;;;;;;;24.83;14.90;;;;;;;;;;5114863;27;20047;-70
2023/01/29 07:03:18;;;;;;;23.70;15.15;;;;;;;;;;5120946;27;20141;-72
2023/01/29 07:05:51;;;;;;;22.90;15.10;;;;;;;;;;5106885;27;20044;-72
2023/01/29 07:08:21;;;;;;;23.90;14.05;;;;;;;;;;5115233;27;20056;-70
2023/01/29 07:10:48;;;;;;;23.42;15.43;;;;;;;;;;5127787;27;20055;-67
2023/01/29 07:13:15;;;;;;;22.63;15.02;;;;;;;;;;5126407;27;20044;-73
2023/01/29 07:15:41;;;;;;;26.85;15.95;;;;;;;;;;5114551;27;20048;-70
2023/01/29 07:18:11;;;;;;;23.08;15.10;;;;;;;;;;5122102;27;20058;-73
2023/01/29 07:20:39;;;;;;;27.17;15.32;;;;;;;;;;5118985;27;20309;-71
2023/01/29 07:23:05;;;;;;;28.63;15.25;;;;;;;;;;5123519;27;20471;-72
2023/01/29 07:25:32;;;;;;;24.20;15.20;;;;;;;;;;5107479;27;20048;-73
2023/01/29 07:27:59;;;;;;;24.85;15.25;;;;;;;;;;5132590;27;20126;-70
2023/01/29 07:30:26;;;;;;;25.30;16.60;;;;;;;;;;5126636;27;20636;-72
2023/01/29 07:32:52;;;;;;;22.52;14.98;;;;;;;;;;5128583;27;20050;-72
2023/01/29 07:35:19;;;;;;;23.17;15.65;;;;;;;;;;5126388;27;20138;-74
2023/01/29 07:37:47;;;;;;;24.13;15.05;;;;;;;;;;5127876;27;20052;-72
2023/01/29 07:40:14;;;;;;;24.42;14.68;;;;;;;;;;5120595;27;20052;-71
2023/01/29 07:42:42;;;;;;;28.65;15.57;;;;;;;;;;5122058;27;20051;-72
2023/01/29 07:45:09;;;;;;;27.13;16.05;;;;;;;;;;5106853;28;20048;-73
2023/01/29 07:47:35;;;;;;;20.48;14.32;;;;;;;;;;5121784;27;20055;-73
2023/01/29 07:50:02;;;;;;;26.42;15.55;;;;;;;;;;5124069;27;20059;-71
2023/01/29 07:52:30;;;;;;;25.83;16.15;;;;;;;;;;5108859;27;20066;-72
2023/01/29 07:54:56;;;;;;;21.20;15.30;;;;;;;;;;5121135;27;20058;-73
2023/01/29 07:57:22;;;;;;;24.30;14.32;;;;;;;;;;5110754;27;20051;-72
2023/01/29 07:59:49;;;;;;;24.38;15.60;;;;;;;;;;5125842;27;20500;-69
2023/01/29 08:02:15;;;;;;;22.75;14.25;;;;;;;;;;5121301;27;20560;-71
2023/01/29 08:04:42;;;;;;;23.15;14.18;;;;;;;;;;5115293;27;20059;-72
2023/01/29 08:07:08;;;;;;;21.83;14.45;;;;;;;;;;5117164;27;20056;-71
2023/01/29 08:09:35;;;;;;;23.33;14.18;;;;;;;;;;5113787;27;20094;-71
2023/01/29 08:12:01;;;;;;;21.58;13.68;;;;;;;;;;5123482;27;20051;-72
2023/01/29 08:14:27;;;;;;;22.85;14.30;;;;;;;;;;5116740;27;20055;-68
2023/01/29 08:16:54;;;;;;;24.23;14.75;;;;;;;;;;5116625;27;20421;-71
2023/01/29 08:19:20;;;;;;;26.60;14.98;;;;;;;;;;5126778;27;20512;-72
2023/01/29 08:21:46;;;;;;;22.48;13.55;;;;;;;;;;5139990;27;20060;-72
2023/01/29 08:24:13;;;;;;;21.50;13.70;;;;;;;;;;5124992;27;20197;-73
2023/01/29 08:26:39;;;;;;;21.55;14.30;;;;;;;;;;5125739;27;20516;-71
2023/01/29 08:29:05;;;;;;;24.42;15.00;;;;;;;;;;5125303;27;20047;-73
2023/01/29 08:31:32;;;;;;;21.38;15.38;;;;;;;;;;5126470;27;20480;-73
2023/01/29 08:33:58;;;;;;;17.88;12.52;;;;;;;;;;5126122;27;20058;-68
2023/01/29 08:36:25;;;;;;;23.77;13.35;;;;;;;;;;5121264;27;20059;-69
2023/01/29 08:38:51;;;;;;;19.73;13.55;;;;;;;;;;5121866;27;20052;-72
2023/01/29 08:41:17;;;;;;;27.55;14.48;;;;;;;;;;5116287;27;20052;-69
2023/01/29 08:43:45;;;;;;;21.00;14.45;;;;;;;;;;5121324;27;20534;-70
2023/01/29 08:46:11;;;;;;;20.77;13.43;;;;;;;;;;5120358;27;20052;-70
2023/01/29 08:48:38;;;;;;;25.38;13.90;;;;;;;;;;5119242;27;20055;-72
2023/01/29 08:51:04;;;;;;;21.02;13.50;;;;;;;;;;5120991;27;20043;-73
2023/01/29 08:53:31;;;;;;;18.80;12.55;;;;;;;;;;5113849;27;20052;-70
2023/01/29 08:55:57;;;;;;;18.98;13.35;;;;;;;;;;5119034;27;20054;-72
2023/01/29 08:58:23;;;;;;;22.50;14.38;;;;;;;;;;5116020;27;20036;-69
2023/01/29 09:00:49;;;;;;;18.65;13.88;;;;;;;;;;5118053;27;20058;-74
2023/01/29 09:03:16;;;;;;;23.25;15.57;;;;;;;;;;5121428;27;20524;-71
2023/01/29 09:05:43;;;;;;;21.25;13.68;;;;;;;;;;5122938;27;20047;-71
2023/01/29 09:08:09;;;;;;;24.52;14.00;;;;;;;;;;5127332;27;20079;-69
2023/01/29 09:10:35;;;;;;;21.00;14.15;;;;;;;;;;5122394;27;20453;-72
2023/01/29 09:13:02;;;;;;;23.55;14.57;;;;;;;;;;5131407;27;20051;-72
2023/01/29 09:15:28;;;;;;;21.20;14.40;;;;;;;;;;5120857;27;20047;-69
2023/01/29 09:17:55;;;;;;;21.25;14.13;;;;;;;;;;5115552;27;20428;-70
2023/01/29 09:20:21;;;;;;;20.10;13.68;;;;;;;;;;5088487;27;20056;-73
2023/01/29 09:22:49;;;;;;;20.35;12.93;;;;;;;;;;5110657;27;20056;-69
2023/01/29 09:25:15;;;;;;;22.35;13.73;;;;;;;;;;5125830;27;20498;-71
2023/01/29 09:27:42;;;;;;;20.23;14.07;;;;;;;;;;5125762;27;20055;-73
2023/01/29 09:30:09;;;;;;;21.52;13.55;;;;;;;;;;5128734;27;20053;-70
2023/01/29 09:32:35;;;;;;;20.23;14.25;;;;;;;;;;5124437;27;20066;-72
2023/01/29 09:35:18;;;;;;;23.92;13.85;;;;;;;;;;5116817;27;20048;-72
2023/01/29 09:37:48;;;;;;;19.85;12.98;;;;;;;;;;5120211;27;20050;-74
2023/01/29 09:40:27;;;;;;;22.23;13.98;;;;;;;;;;5112696;27;20048;-73
2023/01/29 09:43:00;;;;;;;20.55;12.77;;;;;;;;;;5109080;27;20048;-68
2023/01/29 09:45:27;;;;;;;21.83;13.45;;;;;;;;;;5123211;27;20056;-69
2023/01/29 09:47:58;;;;;;;21.92;14.55;;;;;;;;;;5125447;27;20052;-71
2023/01/29 09:50:36;;;;;;;25.40;14.27;;;;;;;;;;5123014;27;20059;-68
2023/01/29 09:53:25;;;;;;;19.58;11.85;;;;;;;;;;5132422;27;20469;-71
2023/01/29 09:55:51;;;;;;;21.35;14.73;;;;;;;;;;5135603;27;20066;-72
2023/01/29 09:58:34;;;;;;;21.50;13.80;;;;;;;;;;5116873;27;20047;-69
2023/01/29 10:01:03;;;;;;;21.10;13.32;;;;;;;;;;5124554;27;20052;-73
2023/01/29 10:03:39;;;;;;;20.15;12.90;;;;;;;;;;5127908;27;20055;-71
2023/01/29 10:06:12;;;;;;;23.67;14.32;;;;;;;;;;5116090;27;20047;-69
2023/01/29 10:08:51;;;;;;;21.70;14.50;;;;;;;;;;5136180;27;20056;-73
2023/01/29 10:11:24;;;;;;;27.83;14.85;;;;;;;;;;5127897;27;20052;-68
2023/01/29 10:13:50;;;;;;;20.35;13.13;;;;;;;;;;5125730;27;20047;-71
2023/01/29 10:16:38;;;;;;;22.45;14.52;;;;;;;;;;5119754;27;20048;-71
2023/01/29 10:19:07;;;;;;;21.10;14.77;;;;;;;;;;5100788;27;20052;-69
2023/01/29 10:21:52;;;;;;;22.52;15.00;;;;;;;;;;5128191;27;20060;-71
2023/01/29 10:24:39;;;;;;;19.08;13.57;;;;;;;;;;5128727;27;20047;-70
2023/01/29 10:27:12;;;;;;;20.10;14.57;;;;;;;;;;5129289;27;20399;-73
2023/01/29 10:29:40;;;;;;;21.77;14.27;;;;;;;;;;5128761;27;20047;-73
2023/01/29 10:32:12;;;;;;;25.58;14.50;;;;;;;;;;5124740;27;20051;-69
2023/01/29 10:34:45;;;;;;;21.50;14.20;;;;;;;;;;5129914;27;20047;-73
2023/01/29 10:37:14;;;;;;;20.48;14.13;;;;;;;;;;5128392;27;20079;-72
2023/01/29 10:39:40;;;;;;;23.65;13.77;;;;;;;;;;5124466;27;20044;-76
2023/01/29 10:42:10;;;;;;;24.55;14.57;;;;;;;;;;5126410;27;20480;-70
2023/01/29 10:44:42;;;;;;;20.70;14.50;;;;;;;;;;5107288;28;20102;-69
2023/01/29 10:47:20;;;;;;;25.77;14.57;;;;;;;;;;5115897;27;20525;-72
2023/01/29 10:49:46;;;;;;;22.52;14.93;;;;;;;;;;5130458;27;20052;-71
2023/01/29 10:52:31;;;;;;;23.65;16.08;;;;;;;;;;5127986;27;20048;-68
2023/01/29 10:55:02;;;;;;;27.80;16.05;;;;;;;;;;5123929;27;20113;-72
2023/01/29 10:57:45;;;;;;;35.15;15.98;;;;;;;;;;5138434;27;20051;-70
2023/01/29 11:00:22;;;;;;;23.00;15.27;;;;;;;;;;5120988;27;20138;-67
2023/01/29 11:02:49;;;;;;;29.13;15.85;;;;;;;;;;5127481;27;20082;-68
2023/01/29 11:05:28;;;;;;;23.83;15.05;;;;;;;;;;5127527;27;20047;-69
2023/01/29 11:08:21;;;;;;;31.33;16.98;;;;;;;;;;5106812;28;20082;-70
2023/01/29 11:10:53;;;;;;;22.75;16.27;;;;;;;;;;5113482;27;20043;-70
2023/01/29 11:13:21;;;;;;;26.35;16.25;;;;;;;;;;5111011;27;20056;-69
2023/01/29 11:15:50;;;;;;;25.48;16.67;;;;;;;;;;5111272;27;20513;-68
2023/01/29 11:18:16;;;;;;;34.70;19.38;;;;;;;;;;5116766;27;20055;-71
2023/01/29 11:20:44;;;;;;;34.28;20.52;;;;;;;;;;5109208;27;20190;-71
2023/01/29 11:23:40;;;;;;;29.45;18.55;;;;;;;;;;5133651;27;20517;-72
2023/01/29 11:26:09;;;;;;;31.57;16.97;;;;;;;;;;5104477;27;20048;-71
2023/01/29 11:28:43;;;;;;;28.17;18.25;;;;;;;;;;5125302;27;20055;-73
2023/01/29 11:31:18;;;;;;;26.50;17.38;;;;;;;;;;5107089;28;20056;-71
2023/01/29 11:33:45;;;;;;;26.83;17.05;;;;;;;;;;5111884;27;20051;-71
2023/01/29 11:36:31;;;;;;;28.83;16.73;;;;;;;;;;5133805;27;20416;-71
2023/01/29 11:39:07;;;;;;;25.17;16.40;;;;;;;;;;5143341;27;20083;-69
2023/01/29 11:41:41;;;;;;;28.80;17.45;;;;;;;;;;5122504;27;20422;-68
2023/01/29 11:44:16;;;;;;;27.90;17.48;;;;;;;;;;5107033;28;20044;-72
2023/01/29 11:46:43;;;;;;;32.45;19.98;;;;;;;;;;5118314;27;20043;-68
2023/01/29 11:49:19;;;;;;;32.60;19.33;;;;;;;;;;5110017;27;20043;-69
2023/01/29 11:51:50;;;;;;;29.33;18.75;;;;;;;;;;5122976;27;20556;-67
2023/01/29 11:54:18;;;;;;;29.67;18.63;;;;;;;;;;5138079;27;20090;-69
2023/01/29 11:56:45;;;;;;;27.92;17.65;;;;;;;;;;5109575;27;20143;-67
2023/01/29 11:59:30;;;;;;;31.05;19.58;;;;;;;;;;5119284;27;20056;-69
2023/01/29 12:02:03;;;;;;;32.72;19.95;;;;;;;;;;5115243;27;20052;-70
2023/01/29 12:04:29;;;;;;;29.90;19.30;;;;;;;;;;5126028;27;20052;-69
2023/01/29 12:06:56;;;;;;;33.40;20.70;;;;;;;;;;5103260;27;20505;-70
2023/01/29 12:09:26;;;;;;;30.67;18.45;;;;;;;;;;5132472;27;20052;-68
2023/01/29 12:11:52;;;;;;;32.63;19.73;;;;;;;;;;5126912;27;20524;-70
2023/01/29 12:14:33;;;;;;;28.08;19.20;;;;;;;;;;5126872;27;20497;-72
2023/01/29 12:17:05;;;;;;;29.05;18.35;;;;;;;;;;5126933;27;20052;-70
2023/01/29 12:19:41;;;;;;;31.10;20.50;;;;;;;;;;5126692;27;20058;-68
2023/01/29 12:22:16;;;;;;;37.22;19.40;;;;;;;;;;5129156;27;20392;-69
2023/01/29 12:24:49;;;;;;;33.65;19.05;;;;;;;;;;5130190;27;20081;-68
2023/01/29 12:27:37;;;;;;;31.92;19.60;;;;;;;;;;5129519;27;20052;-68
2023/01/29 12:32:45;;;;;;;36.17;21.33;;;;;;;;;;5392905;22;20062;-72
2023/01/29 12:35:20;;;;;;;41.20;21.60;;;;;;;;;;5008809;28;20061;-76
2023/01/29 12:38:05;;;;;;;32.00;18.83;;;;;;;;;;5008670;28;20507;-78
2023/01/29 12:40:37;;;;;;;30.05;19.40;;;;;;;;;;5006824;28;20568;-82
2023/01/29 12:43:05;;;;;;;33.55;19.98;;;;;;;;;;5008615;28;20538;-84
2023/01/29 12:45:34;;;;;;;33.58;20.27;;;;;;;;;;5000164;28;20470;-77
2023/01/29 12:48:03;;;;;;;31.08;19.92;;;;;;;;;;5000576;28;20117;-77
2023/01/29 12:50:34;;;;;;;29.77;18.45;;;;;;;;;;5003668;28;20537;-77
2023/01/29 12:53:19;;;;;;;30.50;18.80;;;;;;;;;;5003925;28;20503;-85
2023/01/29 12:55:47;;;;;;;30.83;19.10;;;;;;;;;;5005045;28;20142;-86
2023/01/29 12:58:15;;;;;;;29.48;19.25;;;;;;;;;;5005229;28;20427;-85
2023/01/29 13:00:45;;;;;;;34.28;19.30;;;;;;;;;;5004011;28;20500;-80
2023/01/29 13:03:19;;;;;;;28.92;19.15;;;;;;;;;;5004826;28;20499;-78
2023/01/29 13:05:49;;;;;;;33.72;19.58;;;;;;;;;;5004782;28;20057;-79
2023/01/29 13:08:20;;;;;;;33.13;20.55;;;;;;;;;;5004788;28;20060;-80
2023/01/29 13:10:49;;;;;;;31.08;19.88;;;;;;;;;;5002413;28;20057;-80
2023/01/29 13:13:31;;;;;;;31.20;19.85;;;;;;;;;;5018702;28;20054;-80
2023/01/29 13:15:59;;;;;;;27.20;18.75;;;;;;;;;;5000898;28;20066;-82
2023/01/29 13:18:41;;;;;;;32.50;20.40;;;;;;;;;;5002920;28;20050;-81
2023/01/29 13:21:33;;;;;;;32.10;19.48;;;;;;;;;;5004807;28;20054;-80
2023/01/29 13:24:04;;;;;;;30.85;20.33;;;;;;;;;;4998598;28;20151;-81
2023/01/29 13:26:31;;;;;;;29.38;18.52;;;;;;;;;;4985151;28;20508;-81
2023/01/29 13:28:57;;;;;;;31.98;20.70;;;;;;;;;;4998274;28;20054;-81
2023/01/29 13:31:27;;;;;;;32.45;19.50;;;;;;;;;;5003928;28;20534;-81
2023/01/29 13:33:59;;;;;;;29.95;19.73;;;;;;;;;;5005134;28;20514;-81
2023/01/29 13:36:27;;;;;;;38.10;20.77;;;;;;;;;;5004385;28;20050;-81
2023/01/29 13:39:07;;;;;;;35.38;20.45;;;;;;;;;;5004480;28;20050;-81
2023/01/29 13:41:38;;;;;;;30.48;18.85;;;;;;;;;;5004132;28;20054;-81
2023/01/29 13:44:06;;;;;;;31.55;19.05;;;;;;;;;;5004161;28;20085;-82
2023/01/29 13:46:33;;;;;;;29.02;19.20;;;;;;;;;;5003959;28;20051;-81
2023/01/29 13:49:03;;;;;;;33.00;20.90;;;;;;;;;;5004708;28;20057;-80
2023/01/29 13:51:33;;;;;;;30.98;20.25;;;;;;;;;;5005411;28;20058;-81
2023/01/29 13:54:06;;;;;;;33.35;19.33;;;;;;;;;;5004678;28;20065;-81
2023/01/29 13:56:32;;;;;;;29.42;19.20;;;;;;;;;;5003937;28;20058;-81
2023/01/29 13:59:00;;;;;;;27.83;18.23;;;;;;;;;;5003838;28;20053;-81
2023/01/29 14:01:45;;;;;;;31.85;20.17;;;;;;;;;;4990654;28;20575;-81
2023/01/29 14:04:17;;;;;;;28.00;18.95;;;;;;;;;;5004141;28;20534;-81
2023/01/29 14:06:45;;;;;;;28.08;18.27;;;;;;;;;;5003525;28;20449;-82
2023/01/29 14:09:31;;;;;;;26.63;16.92;;;;;;;;;;5004284;28;20129;-82
2023/01/29 14:11:58;;;;;;;26.08;17.65;;;;;;;;;;5003977;28;20054;-83
2023/01/29 14:14:49;;;;;;;26.70;17.90;;;;;;;;;;5002819;28;20499;-84
2023/01/29 14:17:17;;;;;;;27.35;18.02;;;;;;;;;;5002628;28;20057;-85
2023/01/29 14:19:50;;;;;;;29.85;19.52;;;;;;;;;;5002780;28;20051;-85
2023/01/29 14:22:21;;;;;;;26.13;16.80;;;;;;;;;;5004027;28;20423;-84
2023/01/29 14:24:48;;;;;;;27.52;18.70;;;;;;;;;;5006258;28;20094;-84
2023/01/29 14:27:24;;;;;;;25.95;17.70;;;;;;;;;;5001238;28;20078;-83
2023/01/29 14:29:56;;;;;;;29.63;19.23;;;;;;;;;;5004316;28;20057;-83
2023/01/29 14:32:26;;;;;;;31.88;18.48;;;;;;;;;;5002065;28;20166;-84
2023/01/29 14:35:03;;;;;;;24.88;17.30;;;;;;;;;;5004246;28;20051;-82
2023/01/29 14:37:32;;;;;;;26.80;17.77;;;;;;;;;;4999959;28;20054;-83
2023/01/29 14:40:19;;;;;;;30.58;17.25;;;;;;;;;;5002999;28;20054;-83
2023/01/29 14:42:45;;;;;;;23.83;16.15;;;;;;;;;;4993349;28;20067;-86
2023/01/29 14:45:28;;;;;;;27.40;17.63;;;;;;;;;;5007501;28;20058;-85
2023/01/29 14:47:55;;;;;;;26.77;16.88;;;;;;;;;;5007535;28;20138;-87
2023/01/29 14:50:27;;;;;;;29.67;17.50;;;;;;;;;;5006317;28;20142;-83
2023/01/29 14:52:58;;;;;;;28.55;17.38;;;;;;;;;;5006703;28;20065;-80
2023/01/29 14:55:24;;;;;;;26.35;17.80;;;;;;;;;;5005822;28;20066;-81
2023/01/29 14:57:51;;;;;;;23.08;16.10;;;;;;;;;;5026779;28;20060;-81
2023/01/29 15:00:21;;;;;;;25.42;16.38;;;;;;;;;;5007203;28;20175;-81
2023/01/29 15:02:49;;;;;;;22.48;15.80;;;;;;;;;;5007039;28;20495;-81
2023/01/29 15:05:34;;;;;;;26.85;16.85;;;;;;;;;;5004348;28;20065;-82